createdAt,value
2023-04-09T00:01:14.051Z,62.35
2023-04-09T00:03:42.940Z,62.57
2023-04-09T00:06:13.046Z,62.45
2023-04-09T00:08:42.035Z,62.17
2023-04-09T00:11:11.480Z,62.04
2023-04-09T00:13:40.897Z,62.13
2023-04-09T00:16:10.631Z,62.21
2023-04-09T00:18:39.865Z,62.03
2023-04-09T00:21:09.435Z,61.75
2023-04-09T00:23:38.662Z,61.64
2023-04-09T00:26:07.659Z,61.79
2023-04-09T00:28:37.046Z,62.02
2023-04-09T00:31:06.372Z,61.75
2023-04-09T00:33:35.503Z,61.68
2023-04-09T00:36:04.586Z,61.89
2023-04-09T00:38:33.742Z,61.96
2023-04-09T00:41:03.746Z,62.23
2023-04-09T00:43:33.203Z,61.90
2023-04-09T00:46:02.560Z,62.15
2023-04-09T00:48:31.576Z,62.20
2023-04-09T00:51:00.816Z,62.50
2023-04-09T00:53:29.728Z,62.46
2023-04-09T00:55:59.009Z,62.28
2023-04-09T00:58:27.998Z,62.37
2023-04-09T01:00:56.928Z,62.56
2023-04-09T01:03:26.176Z,62.82
2023-04-09T01:05:59.022Z,62.52
2023-04-09T01:08:37.678Z,62.38
2023-04-09T01:11:29.998Z,62.43
2023-04-09T01:14:46.170Z,62.82
2023-04-09T01:17:21.564Z,63.15
2023-04-09T01:20:06.044Z,63.06
2023-04-09T01:22:56.395Z,62.90
2023-04-09T01:26:00.166Z,63.25
2023-04-09T01:28:40.638Z,63.26
2023-04-09T01:31:18.908Z,63.19
2023-04-09T01:33:48.360Z,63.10
2023-04-09T01:36:17.940Z,63.20
2023-04-09T01:38:49.311Z,63.37
2023-04-09T01:41:24.197Z,63.76
2023-04-09T01:43:53.606Z,63.53
2023-04-09T01:46:23.541Z,63.51
2023-04-09T01:48:52.875Z,63.49
2023-04-09T01:51:22.205Z,63.78
2023-04-09T01:53:51.528Z,64.01
2023-04-09T01:56:21.674Z,63.73
2023-04-09T01:58:50.641Z,63.75
2023-04-09T02:01:19.627Z,64.12
2023-04-09T02:03:55.170Z,64.26
2023-04-09T02:06:42.012Z,63.97
2023-04-09T02:09:13.244Z,64.15
2023-04-09T02:11:43.653Z,64.22
2023-04-09T02:14:13.650Z,64.48
2023-04-09T02:16:43.310Z,64.39
2023-04-09T02:19:12.228Z,64.27
2023-04-09T02:21:41.441Z,64.27
2023-04-09T02:24:10.852Z,64.45
2023-04-09T02:26:39.903Z,64.48
2023-04-09T02:29:08.474Z,64.27
2023-04-09T02:31:37.407Z,64.08
2023-04-09T02:34:06.357Z,64.23
2023-04-09T02:36:35.157Z,64.25
2023-04-09T02:39:04.482Z,64.16
2023-04-09T02:41:33.850Z,63.87
2023-04-09T02:44:03.420Z,63.80
2023-04-09T02:46:32.849Z,63.99
2023-04-09T02:49:02.318Z,64.11
2023-04-09T02:51:31.860Z,63.94
2023-04-09T02:54:00.870Z,63.82
2023-04-09T02:56:30.710Z,63.94
2023-04-09T02:58:59.794Z,64.07
2023-04-09T03:01:29.471Z,64.24
2023-04-09T03:03:59.075Z,64.06
2023-04-09T03:06:28.132Z,64.25
2023-04-09T03:08:57.483Z,64.37
2023-04-09T03:11:26.628Z,64.57
2023-04-09T03:13:55.925Z,64.49
2023-04-09T03:16:27.900Z,64.60
2023-04-09T03:18:57.866Z,64.83
2023-04-09T03:21:27.770Z,65.13
2023-04-09T03:23:56.986Z,65.17
2023-04-09T03:26:25.923Z,65.01
2023-04-09T03:28:55.182Z,65.19
2023-04-09T03:31:24.648Z,65.50
2023-04-09T03:33:53.708Z,65.53
2023-04-09T03:36:23.031Z,65.56
2023-04-09T03:38:52.056Z,65.44
2023-04-09T03:41:20.879Z,66.04
2023-04-09T03:43:49.708Z,66.23
2023-04-09T03:46:19.363Z,65.99
2023-04-09T03:48:48.465Z,66.01
2023-04-09T03:51:18.370Z,66.43
2023-04-09T03:53:47.223Z,66.51
2023-04-09T03:56:16.488Z,66.64
2023-04-09T03:58:45.474Z,66.63
2023-04-09T04:01:14.244Z,66.78
2023-04-09T04:03:43.369Z,66.85
2023-04-09T04:06:12.078Z,66.70
2023-04-09T04:08:41.856Z,66.30
2023-04-09T04:11:11.459Z,66.15
2023-04-09T04:13:40.402Z,66.29
2023-04-09T04:16:10.403Z,65.95
2023-04-09T04:18:39.368Z,65.78
2023-04-09T04:21:14.109Z,65.49
2023-04-09T04:23:43.049Z,65.55
2023-04-09T04:26:12.676Z,65.78
2023-04-09T04:28:41.580Z,65.84
2023-04-09T04:31:12.289Z,65.78
2023-04-09T04:33:42.499Z,65.66
2023-04-09T04:36:14.782Z,65.92
2023-04-09T04:38:43.701Z,66.33
2023-04-09T04:41:12.629Z,66.00
2023-04-09T04:43:41.818Z,65.90
2023-04-09T04:46:10.981Z,66.10
2023-04-09T04:48:39.717Z,66.20
2023-04-09T04:51:08.568Z,66.18
2023-04-09T04:53:37.593Z,66.01
2023-04-09T04:56:06.592Z,66.00
2023-04-09T04:58:35.185Z,66.19
2023-04-09T05:01:03.954Z,66.07
2023-04-09T05:03:32.933Z,65.87
2023-04-09T05:06:01.818Z,65.61
2023-04-09T05:08:31.005Z,65.61
2023-04-09T05:11:00.568Z,65.83
2023-04-09T05:13:29.653Z,65.58
2023-04-09T05:15:58.698Z,65.46
2023-04-09T05:18:27.636Z,65.21
2023-04-09T05:20:57.305Z,65.23
2023-04-09T05:23:26.157Z,65.16
2023-04-09T05:25:54.972Z,64.83
2023-04-09T05:28:24.025Z,64.64
2023-04-09T05:30:53.883Z,64.43
2023-04-09T05:33:23.072Z,64.50
2023-04-09T05:35:52.500Z,64.58
2023-04-09T05:38:23.026Z,64.35
2023-04-09T05:40:52.491Z,64.03
2023-04-09T05:43:21.446Z,64.21
2023-04-09T05:45:53.062Z,64.30
2023-04-09T05:48:23.861Z,64.45
2023-04-09T05:50:55.853Z,64.31
2023-04-09T05:53:26.235Z,63.97
2023-04-09T05:55:56.187Z,63.96
2023-04-09T05:58:25.592Z,63.90
2023-04-09T06:00:55.426Z,63.55
2023-04-09T06:03:24.378Z,63.04
2023-04-09T06:05:53.679Z,62.52
2023-04-09T06:08:22.725Z,62.18
2023-04-09T06:10:51.501Z,61.96
2023-04-09T06:13:20.187Z,61.49
2023-04-09T06:15:49.225Z,60.52
2023-04-09T06:18:18.696Z,59.49
2023-04-09T06:20:47.316Z,58.58
2023-04-09T06:23:16.318Z,56.95
2023-04-09T06:25:45.146Z,55.78
2023-04-09T06:28:14.107Z,54.84
2023-04-09T06:30:43.118Z,53.75
2023-04-09T06:33:12.548Z,53.75
2023-04-09T06:35:42.843Z,53.73
2023-04-09T06:38:12.194Z,53.93
2023-04-09T06:40:41.916Z,54.22
2023-04-09T06:43:12.270Z,54.13
2023-04-09T06:45:42.016Z,53.41
2023-04-09T06:48:12.518Z,52.31
2023-04-09T06:50:43.419Z,51.47
2023-04-09T06:53:13.407Z,50.29
2023-04-09T06:55:44.542Z,49.38
2023-04-09T06:58:18.177Z,49.30
2023-04-09T07:00:47.380Z,49.00
2023-04-09T07:03:16.889Z,48.48
2023-04-09T07:05:46.645Z,47.40
2023-04-09T07:08:16.589Z,47.61
2023-04-09T07:10:47.954Z,47.03
2023-04-09T07:13:17.399Z,45.91
2023-04-09T07:15:47.598Z,45.53
2023-04-09T07:18:17.282Z,44.85
2023-04-09T07:20:46.294Z,45.26
2023-04-09T07:23:15.305Z,46.52
2023-04-09T07:25:45.002Z,47.15
2023-04-09T07:28:14.961Z,47.68
2023-04-09T07:30:44.392Z,48.25
2023-04-09T07:33:14.887Z,48.82
2023-04-09T07:35:44.452Z,49.26
2023-04-09T07:38:14.474Z,50.06
2023-04-09T07:40:43.747Z,50.68
2023-04-09T07:43:12.783Z,49.84
2023-04-09T07:45:43.423Z,48.37
2023-04-09T07:48:13.378Z,46.33
2023-04-09T07:50:43.020Z,46.63
2023-04-09T07:53:13.201Z,47.16
2023-04-09T07:55:42.080Z,47.31
2023-04-09T07:58:11.652Z,46.20
2023-04-09T08:00:40.610Z,45.00
2023-04-09T08:03:11.487Z,43.17
2023-04-09T08:05:41.630Z,40.92
2023-04-09T08:08:10.725Z,39.35
2023-04-09T08:10:39.719Z,37.35
2023-04-09T08:13:10.193Z,36.47
2023-04-09T08:15:41.911Z,35.46
2023-04-09T08:18:11.219Z,34.39
2023-04-09T08:20:45.803Z,33.16
2023-04-09T08:23:15.441Z,31.83
2023-04-09T08:25:44.711Z,31.05
2023-04-09T08:28:14.114Z,29.75
2023-04-09T08:30:46.206Z,28.62
2023-04-09T08:33:18.619Z,27.13
2023-04-09T08:35:48.396Z,24.93
2023-04-09T08:38:19.534Z,24.47
2023-04-09T08:40:49.117Z,25.04
2023-04-09T08:43:25.011Z,24.43
2023-04-09T08:45:59.020Z,23.41
2023-04-09T08:48:28.807Z,23.19
2023-04-09T08:50:58.274Z,24.34
2023-04-09T08:53:28.412Z,25.09
2023-04-09T08:55:58.214Z,25.88
2023-04-09T08:58:28.625Z,24.89
2023-04-09T09:00:57.867Z,24.41
2023-04-09T09:03:27.625Z,24.30
2023-04-09T09:05:56.686Z,23.32
2023-04-09T09:08:27.445Z,22.87
2023-04-09T09:10:56.870Z,21.85
2023-04-09T09:13:28.673Z,22.58
2023-04-09T09:16:24.602Z,22.69
2023-04-09T09:18:54.670Z,21.28
2023-04-09T09:21:25.011Z,21.55
2023-04-09T09:23:55.871Z,20.82
2023-04-09T09:26:30.617Z,20.38
2023-04-09T09:29:07.536Z,20.13
2023-04-09T09:31:50.091Z,18.26
2023-04-09T09:34:22.200Z,20.38
2023-04-09T09:36:51.982Z,20.40
2023-04-09T09:39:23.481Z,19.86
2023-04-09T09:42:08.749Z,19.59
2023-04-09T09:44:39.584Z,19.18
2023-04-09T09:47:10.134Z,18.70
2023-04-09T09:49:39.516Z,18.28
2023-04-09T09:52:11.497Z,17.70
2023-04-09T09:54:46.958Z,17.97
2023-04-09T09:57:20.937Z,17.92
2023-04-09T10:00:17.722Z,18.87
2023-04-09T10:02:57.692Z,19.65
2023-04-09T10:05:28.397Z,19.94
2023-04-09T10:07:58.835Z,20.98
2023-04-09T10:10:28.436Z,20.91
2023-04-09T10:12:58.125Z,20.12
2023-04-09T10:15:30.279Z,19.14
2023-04-09T10:18:00.340Z,18.86
2023-04-09T10:21:00.188Z,19.79
2023-04-09T10:23:38.443Z,21.93
2023-04-09T10:26:07.954Z,23.04
2023-04-09T10:28:40.688Z,22.87
2023-04-09T10:31:09.650Z,24.09
2023-04-09T10:33:39.556Z,25.14
2023-04-09T10:36:15.299Z,24.24
2023-04-09T10:38:47.451Z,23.10
2023-04-09T10:41:23.203Z,24.00
2023-04-09T10:43:51.930Z,25.96
2023-04-09T10:46:37.691Z,25.28
2023-04-09T10:49:19.998Z,23.83
2023-04-09T10:51:51.537Z,23.07
2023-04-09T10:54:37.935Z,22.36
2023-04-09T10:57:09.728Z,21.30
2023-04-09T10:59:41.682Z,19.60
2023-04-09T11:02:26.414Z,18.60
2023-04-09T11:05:11.730Z,17.82
2023-04-09T11:07:45.385Z,17.10
2023-04-09T11:10:14.759Z,16.46
2023-04-09T11:12:44.166Z,16.39
2023-04-09T11:15:18.616Z,16.31
2023-04-09T11:17:49.384Z,16.50
2023-04-09T11:20:22.328Z,15.87
2023-04-09T11:22:53.899Z,15.80
2023-04-09T11:25:28.634Z,15.34
2023-04-09T11:27:58.581Z,15.23
2023-04-09T11:30:28.591Z,15.79
2023-04-09T11:32:58.488Z,15.96
2023-04-09T11:35:29.120Z,16.56
2023-04-09T11:38:00.117Z,16.49
2023-04-09T11:40:30.824Z,17.12
2023-04-09T11:43:01.959Z,17.36
2023-04-09T11:45:34.259Z,17.32
2023-04-09T11:48:06.267Z,17.26
2023-04-09T11:50:38.932Z,18.29
2023-04-09T11:53:23.115Z,19.39
2023-04-09T11:55:54.570Z,20.88
2023-04-09T11:58:26.629Z,22.45
2023-04-09T12:01:02.557Z,23.13
2023-04-09T12:03:33.814Z,24.02
2023-04-09T12:06:04.924Z,24.46
2023-04-09T12:08:38.137Z,24.36
2023-04-09T12:11:13.625Z,23.65
2023-04-09T12:13:46.870Z,23.84
2023-04-09T12:16:21.952Z,24.62
2023-04-09T12:18:56.552Z,24.66
2023-04-09T12:21:27.923Z,25.36
2023-04-09T12:24:00.040Z,25.91
2023-04-09T12:26:31.098Z,26.40
2023-04-09T12:29:02.204Z,26.64
2023-04-09T12:31:31.738Z,27.22
2023-04-09T12:34:01.829Z,28.00
2023-04-09T12:36:33.497Z,28.34
2023-04-09T12:39:04.051Z,27.80
2023-04-09T12:41:35.614Z,27.45
2023-04-09T12:44:06.949Z,25.99
2023-04-09T12:46:36.661Z,29.23
2023-04-09T12:49:06.773Z,26.81
2023-04-09T12:51:38.385Z,25.36
2023-04-09T12:54:09.724Z,24.32
2023-04-09T12:56:41.607Z,21.57
2023-04-09T12:59:11.516Z,20.35
2023-04-09T13:01:43.666Z,19.61
2023-04-09T13:04:16.081Z,18.65
2023-04-09T13:06:51.561Z,18.72
2023-04-09T13:09:25.125Z,19.88
2023-04-09T13:11:57.212Z,21.82
2023-04-09T13:14:30.141Z,23.18
2023-04-09T13:17:03.031Z,23.16
2023-04-09T13:19:33.213Z,22.82
2023-04-09T13:22:03.347Z,25.75
2023-04-09T13:24:33.092Z,25.73
2023-04-09T13:27:04.997Z,26.08
2023-04-09T13:29:34.810Z,25.78
2023-04-09T13:32:07.721Z,26.30
2023-04-09T13:34:39.832Z,26.62
2023-04-09T13:37:11.284Z,27.56
2023-04-09T13:39:41.869Z,27.93
2023-04-09T13:42:14.365Z,31.73
2023-04-09T13:44:48.351Z,33.96
2023-04-09T13:47:19.100Z,33.64
2023-04-09T13:49:48.815Z,33.87
2023-04-09T13:52:17.871Z,34.15
2023-04-09T13:54:47.933Z,34.04
2023-04-09T13:57:19.203Z,35.04
2023-04-09T13:59:50.320Z,36.00
2023-04-09T14:02:20.884Z,37.49
2023-04-09T14:04:52.162Z,36.99
2023-04-09T14:07:22.631Z,34.38
2023-04-09T14:09:52.818Z,32.97
2023-04-09T14:12:22.865Z,31.94
2023-04-09T14:14:52.732Z,31.02
2023-04-09T14:17:22.393Z,30.69
2023-04-09T14:19:51.681Z,29.07
2023-04-09T14:22:21.022Z,28.36
2023-04-09T14:24:50.762Z,27.39
2023-04-09T14:27:20.864Z,25.87
2023-04-09T14:29:52.244Z,24.80
2023-04-09T14:32:21.676Z,24.05
2023-04-09T14:34:52.075Z,23.52
2023-04-09T14:37:21.263Z,23.00
2023-04-09T14:39:51.111Z,22.55
2023-04-09T14:42:20.974Z,22.96
2023-04-09T14:44:50.541Z,23.51
2023-04-09T14:47:19.772Z,23.38
2023-04-09T14:49:49.530Z,23.03
2023-04-09T14:52:19.308Z,23.61
2023-04-09T14:54:48.854Z,24.01
2023-04-09T14:57:18.449Z,24.78
2023-04-09T14:59:47.736Z,25.47
2023-04-09T15:02:17.954Z,25.86
2023-04-09T15:04:47.920Z,26.32
2023-04-09T15:07:17.547Z,26.73
2023-04-09T15:09:47.313Z,27.07
2023-04-09T15:12:17.110Z,27.90
2023-04-09T15:14:47.355Z,28.28
2023-04-09T15:17:19.121Z,28.75
2023-04-09T15:19:49.753Z,29.36
2023-04-09T15:22:22.663Z,30.20
2023-04-09T15:24:52.789Z,30.01
2023-04-09T15:27:22.155Z,30.56
2023-04-09T15:29:52.232Z,30.75
2023-04-09T15:32:22.744Z,31.35
2023-04-09T15:34:53.429Z,31.84
2023-04-09T15:37:24.306Z,31.95
2023-04-09T15:39:54.852Z,32.25
2023-04-09T15:42:23.924Z,32.80
2023-04-09T15:44:53.677Z,33.48
2023-04-09T15:47:23.319Z,33.15
2023-04-09T15:49:53.367Z,33.19
2023-04-09T15:52:23.459Z,32.90
2023-04-09T15:54:53.007Z,32.97
2023-04-09T15:57:22.477Z,33.05
2023-04-09T15:59:52.212Z,33.27
2023-04-09T16:02:24.071Z,33.49
2023-04-09T16:04:55.768Z,33.94
2023-04-09T16:07:25.925Z,33.89
2023-04-09T16:09:55.677Z,33.77
2023-04-09T16:12:26.620Z,34.01
2023-04-09T16:14:56.489Z,34.13
2023-04-09T16:17:25.528Z,34.22
2023-04-09T16:19:56.394Z,34.76
2023-04-09T16:22:25.747Z,34.71
2023-04-09T16:24:54.797Z,35.09
2023-04-09T16:27:24.463Z,35.02
2023-04-09T16:29:53.339Z,34.68
2023-04-09T16:32:22.396Z,34.73
2023-04-09T16:34:51.785Z,34.29
2023-04-09T16:37:21.551Z,34.43
2023-04-09T16:39:51.728Z,34.26
2023-04-09T16:42:22.484Z,34.08
2023-04-09T16:44:51.701Z,34.46
2023-04-09T16:47:22.356Z,34.74
2023-04-09T16:49:52.308Z,34.61
2023-04-09T16:52:22.502Z,34.64
2023-04-09T16:54:51.972Z,34.64
2023-04-09T16:57:21.732Z,34.66
2023-04-09T16:59:51.224Z,34.63
2023-04-09T17:02:22.601Z,34.74
2023-04-09T17:04:52.361Z,34.75
2023-04-09T17:07:22.287Z,34.85
2023-04-09T17:09:52.156Z,35.33
2023-04-09T17:12:22.160Z,35.41
2023-04-09T17:14:52.489Z,35.39
2023-04-09T17:17:22.940Z,35.49
2023-04-09T17:19:54.236Z,35.64
2023-04-09T17:22:26.629Z,35.75
2023-04-09T17:24:57.086Z,35.89
2023-04-09T17:27:28.547Z,36.09
2023-04-09T17:29:58.785Z,36.10
2023-04-09T17:32:28.596Z,36.39
2023-04-09T17:35:00.390Z,36.82
2023-04-09T17:37:29.999Z,37.02
2023-04-09T17:39:59.414Z,37.09
2023-04-09T17:42:29.383Z,37.35
2023-04-09T17:44:58.384Z,37.48
2023-04-09T17:47:28.132Z,37.50
2023-04-09T17:49:57.662Z,37.76
2023-04-09T17:52:27.408Z,38.02
2023-04-09T17:54:58.225Z,38.40
2023-04-09T17:57:28.937Z,39.60
2023-04-09T17:59:59.029Z,40.43
2023-04-09T18:02:28.897Z,40.77
2023-04-09T18:05:04.493Z,41.40
2023-04-09T18:07:35.726Z,41.73
2023-04-09T18:10:08.420Z,42.40
2023-04-09T18:12:38.894Z,43.03
2023-04-09T18:15:08.805Z,43.34
2023-04-09T18:17:39.374Z,42.78
2023-04-09T18:20:08.945Z,42.30
2023-04-09T18:22:38.717Z,42.06
2023-04-09T18:25:08.684Z,42.46
2023-04-09T18:27:38.632Z,43.11
2023-04-09T18:30:11.629Z,43.70
2023-04-09T18:32:40.758Z,44.24
2023-04-09T18:35:10.503Z,43.99
2023-04-09T18:37:39.272Z,44.24
2023-04-09T18:40:12.656Z,43.16
2023-04-09T18:42:41.933Z,42.61
2023-04-09T18:45:12.123Z,42.75
2023-04-09T18:47:41.203Z,43.55
2023-04-09T18:50:11.782Z,44.36
2023-04-09T18:52:41.291Z,44.96
2023-04-09T18:55:12.407Z,45.45
2023-04-09T18:57:44.589Z,45.64
2023-04-09T19:00:13.689Z,46.05
2023-04-09T19:02:43.712Z,46.95
2023-04-09T19:05:13.526Z,47.00
2023-04-09T19:07:43.954Z,46.86
2023-04-09T19:10:14.212Z,46.76
2023-04-09T19:12:51.097Z,47.08
2023-04-09T19:15:26.485Z,46.85
2023-04-09T19:17:57.248Z,46.72
2023-04-09T19:20:26.669Z,46.95
2023-04-09T19:22:57.195Z,47.35
2023-04-09T19:25:26.499Z,47.62
2023-04-09T19:27:56.901Z,47.44
2023-04-09T19:30:27.113Z,48.04
2023-04-09T19:32:56.634Z,48.21
2023-04-09T19:35:25.608Z,48.49
2023-04-09T19:37:54.645Z,49.04
2023-04-09T19:40:23.424Z,49.06
2023-04-09T19:42:52.716Z,49.51
2023-04-09T19:45:22.630Z,49.70
2023-04-09T19:47:52.482Z,49.51
2023-04-09T19:50:22.373Z,48.95
2023-04-09T19:52:51.307Z,48.69
2023-04-09T19:55:20.781Z,48.91
2023-04-09T19:57:49.984Z,49.12
2023-04-09T20:00:19.554Z,49.28
2023-04-09T20:02:49.882Z,49.42
2023-04-09T20:05:22.308Z,49.65
2023-04-09T20:07:55.343Z,49.95
2023-04-09T20:10:25.103Z,50.61
2023-04-09T20:12:55.079Z,51.05
2023-04-09T20:15:25.902Z,51.18
2023-04-09T20:17:56.187Z,50.98
2023-04-09T20:20:26.012Z,50.59
2023-04-09T20:22:56.944Z,50.24
2023-04-09T20:25:26.968Z,49.97
2023-04-09T20:27:56.604Z,49.94
2023-04-09T20:30:28.293Z,49.81
2023-04-09T20:32:59.328Z,49.62
2023-04-09T20:35:29.607Z,49.40
2023-04-09T20:38:00.253Z,49.27
2023-04-09T20:40:31.859Z,49.71
2023-04-09T20:43:01.866Z,50.07
2023-04-09T20:45:31.838Z,50.22
2023-04-09T20:48:03.543Z,50.46
2023-04-09T20:50:34.189Z,50.79
2023-04-09T20:53:04.869Z,50.79
2023-04-09T20:55:36.665Z,50.74
2023-04-09T20:58:08.640Z,50.50
2023-04-09T21:00:38.295Z,50.59
2023-04-09T21:03:08.050Z,50.61
2023-04-09T21:05:37.625Z,50.84
2023-04-09T21:08:07.629Z,51.09
2023-04-09T21:10:37.420Z,51.02
2023-04-09T21:13:06.961Z,51.13
2023-04-09T21:15:38.398Z,51.27
2023-04-09T21:18:08.810Z,51.49
2023-04-09T21:20:46.123Z,51.56
2023-04-09T21:23:17.931Z,52.28
2023-04-09T21:25:47.176Z,52.95
2023-04-09T21:28:17.732Z,53.03
2023-04-09T21:30:47.608Z,53.12
2023-04-09T21:33:17.059Z,53.36
2023-04-09T21:35:46.753Z,53.29
2023-04-09T21:38:17.543Z,53.43
2023-04-09T21:40:47.920Z,53.73
2023-04-09T21:43:17.484Z,53.73
2023-04-09T21:45:47.993Z,53.92
2023-04-09T21:48:17.786Z,54.21
2023-04-09T21:50:47.599Z,54.36
2023-04-09T21:53:17.400Z,54.48
2023-04-09T21:55:47.803Z,54.56
2023-04-09T21:58:17.965Z,54.45
2023-04-09T22:00:47.773Z,54.35
2023-04-09T22:03:17.122Z,54.88
2023-04-09T22:05:46.186Z,54.48
2023-04-09T22:08:15.769Z,53.79
2023-04-09T22:10:45.233Z,53.55
2023-04-09T22:13:14.085Z,53.89
2023-04-09T22:15:43.247Z,54.21
2023-04-09T22:18:12.211Z,54.50
2023-04-09T22:20:41.657Z,54.64
2023-04-09T22:23:12.064Z,54.58
2023-04-09T22:25:41.684Z,55.00
2023-04-09T22:28:10.640Z,55.19
2023-04-09T22:30:39.509Z,55.40
2023-04-09T22:33:09.748Z,54.91
2023-04-09T22:35:39.212Z,54.89
2023-04-09T22:38:08.867Z,55.37
2023-04-09T22:40:38.237Z,55.89
2023-04-09T22:43:07.900Z,56.40
2023-04-09T22:45:38.433Z,56.26
2023-04-09T22:48:09.867Z,56.35
2023-04-09T22:50:38.965Z,56.51
2023-04-09T22:53:08.527Z,56.83
2023-04-09T22:55:38.717Z,56.72
2023-04-09T22:58:08.149Z,55.99
2023-04-09T23:00:37.827Z,55.70
2023-04-09T23:03:07.443Z,54.94
2023-04-09T23:05:37.186Z,54.40
2023-04-09T23:08:07.281Z,54.19
2023-04-09T23:10:37.336Z,54.21
2023-04-09T23:13:06.874Z,54.77
2023-04-09T23:15:36.170Z,55.16
2023-04-09T23:18:05.602Z,55.45
2023-04-09T23:20:36.283Z,55.57
2023-04-09T23:23:05.154Z,55.92
2023-04-09T23:25:34.911Z,56.12
2023-04-09T23:28:05.056Z,56.71
2023-04-09T23:30:34.262Z,57.20
2023-04-09T23:33:03.833Z,57.34
2023-04-09T23:35:32.596Z,57.46
2023-04-09T23:38:01.644Z,57.65
2023-04-09T23:40:30.683Z,57.91
2023-04-09T23:42:59.787Z,58.27
2023-04-09T23:45:29.248Z,58.00
2023-04-09T23:47:59.385Z,57.85
2023-04-09T23:50:29.348Z,57.88
2023-04-09T23:53:01.526Z,57.99
2023-04-09T23:55:30.720Z,58.15
2023-04-09T23:58:00.307Z,58.57
